createdAt,value
2022-08-07T00:02:40.755Z,-79.60466
2022-08-07T00:07:45.307Z,-79.41125
2022-08-07T00:12:57.614Z,-79.36958
2022-08-07T00:17:59.128Z,-79.88256
2022-08-07T00:23:00.174Z,-80.08503
2022-08-07T00:28:01.695Z,-79.73198
2022-08-07T00:33:03.748Z,-79.65178
2022-08-07T00:38:04.676Z,-79.57774
2022-08-07T00:43:10.034Z,-78.97253
2022-08-07T00:48:12.277Z,-79.40216
2022-08-07T00:53:13.650Z,-79.50447
2022-08-07T00:58:18.416Z,-79.77165
2022-08-07T01:03:19.339Z,-79.77586
2022-08-07T01:09:01.030Z,-79.96579
2022-08-07T01:14:02.530Z,-79.79629
2022-08-07T01:19:03.452Z,-79.79265
2022-08-07T01:24:04.848Z,-79.5847
2022-08-07T01:29:05.773Z,-79.31837
2022-08-07T01:34:06.681Z,-78.97843
2022-08-07T01:39:09.836Z,-78.92819
2022-08-07T01:44:11.470Z,-79.26576
2022-08-07T01:49:13.975Z,-79.45246
2022-08-07T01:54:32.943Z,-79.16895
2022-08-07T01:59:38.212Z,-79.20874
2022-08-07T02:04:55.866Z,-79.17091
2022-08-07T02:09:58.461Z,-78.99701
2022-08-07T02:15:00.651Z,-78.87221
2022-08-07T02:20:06.624Z,-79.29746
2022-08-07T02:25:17.408Z,-79.26986
2022-08-07T02:30:19.319Z,-79.72103
2022-08-07T02:35:20.504Z,-79.59338
2022-08-07T02:41:33.316Z,-79.44615
2022-08-07T02:46:37.969Z,-79.46324
2022-08-07T02:51:51.905Z,-79.23095
2022-08-07T02:56:53.342Z,-78.96397
2022-08-07T03:01:55.355Z,-78.70876
2022-08-07T03:06:56.555Z,-79.06027
2022-08-07T03:12:02.628Z,-79.15642
2022-08-07T03:17:04.543Z,-79.48641
2022-08-07T03:32:06.749Z,-79.89677
2022-08-07T03:37:12.377Z,-79.46233
2022-08-07T03:42:13.671Z,-79.86023
2022-08-07T03:47:14.825Z,-80.13529
2022-08-07T03:52:22.270Z,-80.33082
2022-08-07T03:58:08.859Z,-80.71844
2022-08-07T04:04:06.994Z,-80.59082
2022-08-07T04:09:15.081Z,-80.62889
2022-08-07T04:14:38.915Z,-80.63091
2022-08-07T04:19:52.846Z,-80.24047
2022-08-07T04:24:55.688Z,-80.73262
2022-08-07T04:30:02.760Z,-80.89811
2022-08-07T04:35:06.324Z,-81.32682
2022-08-07T04:40:12.218Z,-81.12743
2022-08-07T04:45:17.738Z,-81.78726
2022-08-07T04:50:23.863Z,-82.21278
2022-08-07T04:58:15.327Z,-82.47099
2022-08-07T05:03:59.715Z,-82.76168
2022-08-07T05:14:56.077Z,-82.30062
2022-08-07T05:25:00.641Z,-82.08844
2022-08-07T05:30:02.089Z,-82.60045
2022-08-07T05:35:03.081Z,-82.29863
2022-08-07T05:40:14.055Z,-82.65211
2022-08-07T05:45:28.269Z,-82.87638
2022-08-07T05:50:48.273Z,-83.03507
2022-08-07T05:56:02.390Z,-82.75484
2022-08-07T06:01:05.894Z,-82.99777
2022-08-07T06:06:09.391Z,-83.42344
2022-08-07T06:11:10.591Z,-83.32406
2022-08-07T06:16:13.518Z,-83.29761
2022-08-07T06:22:15.415Z,-83.52127
2022-08-07T06:27:43.911Z,-83.14172
2022-08-07T06:33:00.562Z,-83.2893
2022-08-07T06:38:01.883Z,-83.25965
2022-08-07T06:43:02.816Z,-82.9395
2022-08-07T06:48:08.338Z,-83.2256
2022-08-07T06:53:49.272Z,-82.861
2022-08-07T07:00:28.499Z,-82.98568
2022-08-07T07:06:04.789Z,-82.83345
2022-08-07T07:11:13.987Z,-82.75768
2022-08-07T07:17:10.640Z,-82.77764
2022-08-07T07:22:36.805Z,-82.73194
2022-08-07T07:29:57.078Z,-82.75462
2022-08-07T07:35:10.518Z,-82.50827
2022-08-07T07:40:15.155Z,-82.21082
2022-08-07T07:45:16.393Z,-81.57152
2022-08-07T07:50:33.944Z,-81.79104
2022-08-07T07:55:54.476Z,-80.88766
2022-08-07T08:00:55.606Z,-80.36572
2022-08-07T08:05:56.526Z,-79.97501
2022-08-07T08:10:57.908Z,-79.67422
2022-08-07T08:16:00.764Z,-79.57053
2022-08-07T08:21:02.572Z,-79.01352
2022-08-07T08:26:06.673Z,-78.92265
2022-08-07T08:31:08.193Z,-78.62338
2022-08-07T08:36:16.677Z,-78.40908
2022-08-07T08:41:17.605Z,-77.99315
2022-08-07T08:46:20.496Z,-78.13006
2022-08-07T08:56:24.663Z,-77.28066
2022-08-07T09:01:29.622Z,-76.67756
2022-08-07T09:06:42.874Z,-76.86083
2022-08-07T09:11:53.279Z,-76.98106
2022-08-07T09:16:57.770Z,-76.5743
2022-08-07T09:22:22.873Z,-76.78311
2022-08-07T09:30:04.272Z,-75.82491
2022-08-07T09:36:05.187Z,-75.3705
2022-08-07T09:41:07.101Z,-74.86141
2022-08-07T09:47:24.875Z,-74.6848
2022-08-07T09:52:52.493Z,-74.12406
2022-08-07T09:57:54.953Z,-74.15037
2022-08-07T10:02:56.331Z,-73.62254
2022-08-07T10:07:57.765Z,-73.00537
2022-08-07T10:12:59.433Z,-72.56935
2022-08-07T10:18:02.778Z,-72.07779
2022-08-07T10:23:04.065Z,-71.54928
2022-08-07T10:28:08.745Z,-71.12439
2022-08-07T10:33:15.126Z,-70.70204
2022-08-07T10:38:35.087Z,-70.33368
2022-08-07T10:43:42.355Z,-69.54835
2022-08-07T10:48:44.049Z,-69.85126
2022-08-07T10:53:45.157Z,-69.05064
2022-08-07T10:58:47.411Z,-68.18835
2022-08-07T11:03:54.893Z,-67.74775
2022-08-07T11:08:59.233Z,-67.24853
2022-08-07T11:14:43.504Z,-67.45385
2022-08-07T11:19:47.747Z,-66.45879
2022-08-07T11:24:48.630Z,-66.1139
2022-08-07T11:29:53.514Z,-65.48174
2022-08-07T11:35:11.414Z,-65.07547
2022-08-07T11:40:19.198Z,-64.84412
2022-08-07T11:45:23.766Z,-64.41179
2022-08-07T11:50:36.376Z,-63.79243
2022-08-07T11:56:15.743Z,-63.55257
2022-08-07T12:01:58.603Z,-63.38906
2022-08-07T12:07:10.098Z,-62.83894
2022-08-07T12:12:21.538Z,-62.06828
2022-08-07T12:17:25.440Z,-61.07809
2022-08-07T12:22:37.767Z,-61.11437
2022-08-07T12:28:08.624Z,-60.32871
2022-08-07T12:33:18.813Z,-60.4103
2022-08-07T12:38:36.776Z,-59.80799
2022-08-07T12:44:04.498Z,-59.52053
2022-08-07T12:49:10.219Z,-59.3145
2022-08-07T12:54:38.326Z,-58.62481
2022-08-07T12:59:54.404Z,-58.024
2022-08-07T13:05:01.095Z,-58.15652
2022-08-07T13:10:37.493Z,-57.58677
2022-08-07T13:15:41.917Z,-56.98431
2022-08-07T13:20:42.902Z,-56.43643
2022-08-07T13:25:45.541Z,-55.98321
2022-08-07T13:30:53.425Z,-55.30534
2022-08-07T13:36:05.723Z,-54.82296
2022-08-07T13:41:06.982Z,-54.15105
2022-08-07T13:46:22.046Z,-53.54604
2022-08-07T13:52:22.745Z,-52.85098
2022-08-07T13:57:37.764Z,-52.97687
2022-08-07T14:02:51.077Z,-52.54105
2022-08-07T14:08:00.641Z,-52.38326
2022-08-07T14:13:02.919Z,-51.86232
2022-08-07T14:18:24.492Z,-51.45876
2022-08-07T14:23:59.082Z,-50.96743
2022-08-07T14:30:02.996Z,-50.6415
2022-08-07T14:35:07.942Z,-50.37244
2022-08-07T14:40:16.828Z,-49.83983
2022-08-07T14:45:46.842Z,-49.68137
2022-08-07T14:50:51.003Z,-48.99624
2022-08-07T14:55:56.080Z,-49.14793
2022-08-07T15:00:57.660Z,-48.28356
2022-08-07T15:06:03.520Z,-48.33134
2022-08-07T15:11:05.673Z,-47.77965
2022-08-07T15:16:11.218Z,-47.68673
2022-08-07T15:21:58.540Z,-47.73852
2022-08-07T15:27:05.516Z,-47.23905
2022-08-07T15:32:06.532Z,-46.64359
2022-08-07T15:37:12.745Z,-46.65286
2022-08-07T15:42:46.821Z,-46.00704
2022-08-07T15:48:01.074Z,-46.0839
2022-08-07T15:53:02.929Z,-46.20968
2022-08-07T15:58:06.024Z,-46.13109
2022-08-07T16:03:22.205Z,-45.83732
2022-08-07T16:08:48.216Z,-45.47422
2022-08-07T16:13:58.983Z,-45.17548
2022-08-07T16:19:01.545Z,-45.09678
2022-08-07T16:24:04.286Z,-45.12655
2022-08-07T16:30:06.515Z,-45.25354
2022-08-07T16:35:56.859Z,-45.18274
2022-08-07T16:41:02.181Z,-45.00471
2022-08-07T16:46:33.471Z,-45.19115
2022-08-07T16:52:49.152Z,-44.98225
2022-08-07T16:58:02.554Z,-45.32236
2022-08-07T17:03:09.563Z,-45.23565
2022-08-07T17:08:10.478Z,-45.34919
2022-08-07T17:13:12.343Z,-45.29229
2022-08-07T17:18:18.266Z,-45.39019
2022-08-07T17:23:19.245Z,-45.54396
2022-08-07T17:28:20.198Z,-45.72043
2022-08-07T17:34:09.248Z,-45.92265
2022-08-07T17:39:58.187Z,-45.97563
2022-08-07T17:46:53.319Z,-45.97649
2022-08-07T17:52:00.399Z,-45.92725
2022-08-07T17:57:02.335Z,-45.64256
2022-08-07T18:02:23.212Z,-46.11071
2022-08-07T18:07:28.510Z,-45.68222
2022-08-07T18:12:35.376Z,-45.71424
2022-08-07T18:18:33.142Z,-45.86776
2022-08-07T18:26:02.872Z,-46.16895
2022-08-07T18:31:06.343Z,-46.55492
2022-08-07T18:36:09.658Z,-46.67248
2022-08-07T18:41:17.026Z,-47.03279
2022-08-07T18:46:25.572Z,-47.34657
2022-08-07T18:52:35.052Z,-47.64834
2022-08-07T18:57:59.486Z,-48.20371
2022-08-07T19:03:00.748Z,-48.64886
2022-08-07T19:08:03.974Z,-48.67782
2022-08-07T19:13:10.123Z,-49.19046
2022-08-07T19:18:12.811Z,-49.42787
2022-08-07T19:28:57.819Z,-50.01783
2022-08-07T19:36:00.101Z,-50.23997
2022-08-07T19:41:01.084Z,-50.73972
2022-08-07T19:46:07.890Z,-50.83943
2022-08-07T19:51:19.867Z,-51.14684
2022-08-07T19:57:52.192Z,-51.38545
2022-08-07T20:08:05.246Z,-52.10217
2022-08-07T20:13:06.357Z,-52.09107
2022-08-07T20:23:40.683Z,-52.38405
2022-08-07T20:28:43.134Z,-52.92489
2022-08-07T20:33:44.022Z,-53.08401
2022-08-07T20:38:53.358Z,-53.00325
2022-08-07T20:44:02.722Z,-53.21296
2022-08-07T20:49:58.374Z,-53.41855
2022-08-07T20:55:02.953Z,-54.13688
2022-08-07T21:00:08.325Z,-54.21341
2022-08-07T21:05:16.287Z,-54.60994
2022-08-07T21:10:17.634Z,-54.76943
2022-08-07T21:15:58.348Z,-54.66101
2022-08-07T21:26:03.280Z,-54.38189
2022-08-07T21:36:11.850Z,-55.04385
2022-08-07T21:41:37.975Z,-54.94003
2022-08-07T21:46:53.482Z,-54.7938
2022-08-07T21:51:55.837Z,-54.84782
2022-08-07T21:56:57.937Z,-54.79967
2022-08-07T22:02:11.585Z,-54.89831
2022-08-07T22:07:14.330Z,-54.9744
2022-08-07T22:12:15.486Z,-55.07244
2022-08-07T22:17:20.061Z,-55.43429
2022-08-07T22:22:28.852Z,-55.45989
2022-08-07T22:27:33.987Z,-55.01728
2022-08-07T22:33:09.459Z,-55.15375
2022-08-07T22:38:10.496Z,-55.09777
2022-08-07T22:43:11.411Z,-54.71359
2022-08-07T22:48:31.725Z,-54.80745
2022-08-07T22:54:05.661Z,-55.07506
2022-08-07T22:59:09.354Z,-55.02015
2022-08-07T23:04:10.805Z,-55.19143
2022-08-07T23:10:01.103Z,-54.84795
2022-08-07T23:16:06.956Z,-55.5823
2022-08-07T23:21:09.845Z,-55.99874
2022-08-07T23:26:10.735Z,-56.31493
2022-08-07T23:36:17.382Z,-56.16163
2022-08-07T23:44:14.648Z,-56.04486
2022-08-07T23:49:15.796Z,-55.70821
2022-08-07T23:54:20.025Z,-55.98652
